Time;durP1;ratioP1;P1;durP2;ratioP2;P2;SDS_P1;SDS_P2;PMS_P1;PMS_P2;Temp;Humidity;BMP_temperature;BMP_pressure;BME280_temperature;BME280_humidity;BME280_pressure;Samples;Min_cycle;Max_cycle;Signal;HPM_P1;HPM_P2
2023/08/19 00:00:38;;;;;;;;;;;21.00;99.90;;;;;;5115612;28;19911;-45
2023/08/19 00:03:04;;;;;;;;;;;21.00;99.90;;;;;;5115588;28;19908;-43
2023/08/19 00:05:29;;;;;;;;;;;20.90;99.90;;;;;;5133240;27;20316;-43
2023/08/19 00:07:55;;;;;;;;;;;20.90;99.90;;;;;;5136421;27;20033;-43
2023/08/19 00:10:20;;;;;;;;;;;20.90;99.90;;;;;;5136329;27;19931;-43
2023/08/19 00:12:46;;;;;;;;;;;20.90;99.90;;;;;;5136127;27;19960;-44
2023/08/19 00:15:11;;;;;;;;;;;20.90;99.90;;;;;;5136208;27;19914;-43
2023/08/19 00:17:37;;;;;;;;;;;20.90;99.90;;;;;;5135873;27;20018;-43
2023/08/19 00:20:05;;;;;;;;;;;20.90;99.90;;;;;;5136141;27;19994;-43
2023/08/19 00:22:31;;;;;;;;;;;20.90;99.90;;;;;;5135962;27;19907;-42
2023/08/19 00:24:56;;;;;;;;;;;20.90;99.90;;;;;;5136005;27;19908;-43
2023/08/19 00:27:22;;;;;;;;;;;20.90;99.90;;;;;;5135888;27;19907;-42
2023/08/19 00:29:47;;;;;;;;;;;20.90;99.90;;;;;;5135828;27;20337;-43
2023/08/19 00:32:13;;;;;;;;;;;20.90;99.90;;;;;;5135763;27;19914;-43
2023/08/19 00:34:38;;;;;;;;;;;20.90;99.90;;;;;;5135643;27;20270;-43
2023/08/19 00:37:04;;;;;;;;;;;20.90;99.90;;;;;;5135719;27;19916;-44
2023/08/19 00:39:29;;;;;;;;;;;20.90;99.90;;;;;;5135585;27;19907;-43
2023/08/19 00:41:55;;;;;;;;;;;20.80;99.90;;;;;;5152606;27;20049;-44
2023/08/19 00:44:20;;;;;;;;;;;20.80;99.90;;;;;;5155992;27;19926;-43
2023/08/19 00:46:46;;;;;;;;;;;20.80;99.90;;;;;;5156170;27;20369;-43
2023/08/19 00:49:11;;;;;;;;;;;20.80;99.90;;;;;;5156227;27;19914;-45
2023/08/19 00:51:37;;;;;;;;;;;20.80;99.90;;;;;;5154830;27;19942;-43
2023/08/19 00:54:03;;;;;;;;;;;20.80;99.90;;;;;;5154425;27;20348;-44
2023/08/19 00:56:29;;;;;;;;;;;20.80;99.90;;;;;;5135199;27;20319;-43
2023/08/19 00:58:55;;;;;;;;;;;20.80;99.90;;;;;;5137625;27;19926;-43
2023/08/19 01:01:20;;;;;;;;;;;20.80;99.90;;;;;;5143636;27;19919;-41
2023/08/19 01:03:46;;;;;;;;;;;20.80;99.90;;;;;;5146999;27;19919;-44
2023/08/19 01:06:30;;;;;;;;;;;20.70;99.90;;;;;;5134209;27;19919;-41
2023/08/19 01:09:04;;;;;;;;;;;20.80;99.90;;;;;;5131311;27;20385;-43
2023/08/19 01:11:48;;;;;;;;;;;20.80;99.90;;;;;;5131758;27;19907;-45
2023/08/19 01:14:32;;;;;;;;;;;20.80;99.90;;;;;;5135043;27;19908;-43
2023/08/19 01:17:00;;;;;;;;;;;20.80;99.90;;;;;;5134741;27;19924;-42
2023/08/19 01:19:29;;;;;;;;;;;20.80;99.90;;;;;;5134809;27;20290;-43
2023/08/19 01:21:58;;;;;;;;;;;20.80;99.90;;;;;;5134213;27;19911;-42
2023/08/19 01:24:25;;;;;;;;;;;20.80;99.90;;;;;;5134409;27;19912;-42
2023/08/19 01:26:50;;;;;;;;;;;20.80;99.90;;;;;;5134332;27;19990;-43
2023/08/19 01:29:16;;;;;;;;;;;20.80;99.90;;;;;;5134540;27;20454;-43
2023/08/19 01:31:41;;;;;;;;;;;20.70;99.90;;;;;;5134518;27;19914;-42
2023/08/19 01:34:07;;;;;;;;;;;20.80;99.90;;;;;;5141367;27;19922;-44
2023/08/19 01:36:38;;;;;;;;;;;20.80;99.90;;;;;;5155032;27;19933;-42
2023/08/19 01:39:06;;;;;;;;;;;20.80;99.90;;;;;;5155216;27;20404;-42
2023/08/19 01:41:32;;;;;;;;;;;20.80;99.90;;;;;;5155107;27;20005;-42
2023/08/19 01:43:58;;;;;;;;;;;20.80;99.90;;;;;;5154754;27;20259;-43
2023/08/19 01:46:24;;;;;;;;;;;20.80;99.90;;;;;;5155094;27;20365;-42
2023/08/19 01:48:49;;;;;;;;;;;20.80;99.90;;;;;;5155081;27;19913;-42
2023/08/19 01:51:15;;;;;;;;;;;20.80;99.90;;;;;;5154886;27;19932;-43
2023/08/19 01:53:40;;;;;;;;;;;20.90;99.90;;;;;;5154938;27;19921;-41
2023/08/19 01:56:06;;;;;;;;;;;20.90;99.90;;;;;;5155197;27;19914;-44
2023/08/19 01:58:31;;;;;;;;;;;20.90;99.90;;;;;;5154668;27;20370;-43
2023/08/19 02:00:57;;;;;;;;;;;20.90;99.90;;;;;;5154908;27;19912;-43
2023/08/19 02:03:22;;;;;;;;;;;20.90;99.90;;;;;;5154715;27;19907;-44
2023/08/19 02:05:48;;;;;;;;;;;20.90;99.90;;;;;;5135340;27;19908;-42
2023/08/19 02:08:13;;;;;;;;;;;20.90;99.90;;;;;;5134177;27;19907;-44
2023/08/19 02:10:40;;;;;;;;;;;20.90;99.90;;;;;;5133873;27;20354;-42
2023/08/19 02:13:06;;;;;;;;;;;20.90;99.90;;;;;;5133935;27;19953;-42
2023/08/19 02:15:32;;;;;;;;;;;20.90;99.90;;;;;;5133880;27;19998;-44
2023/08/19 02:17:58;;;;;;;;;;;20.90;99.90;;;;;;5133767;27;20018;-45
2023/08/19 02:20:23;;;;;;;;;;;20.80;99.90;;;;;;5133761;27;19947;-46
2023/08/19 02:22:49;;;;;;;;;;;20.90;99.90;;;;;;5133863;27;19907;-43
2023/08/19 02:25:14;;;;;;;;;;;20.80;99.90;;;;;;5133929;28;19907;-43
2023/08/19 02:27:40;;;;;;;;;;;20.90;99.90;;;;;;5133690;28;20342;-43
2023/08/19 02:30:06;;;;;;;;;;;20.80;99.90;;;;;;5133877;28;19908;-43
2023/08/19 02:32:31;;;;;;;;;;;20.80;99.90;;;;;;5133694;28;19949;-42
2023/08/19 02:34:59;;;;;;;;;;;20.90;99.90;;;;;;5133709;28;19907;-43
2023/08/19 02:37:24;;;;;;;;;;;20.80;99.90;;;;;;5133564;28;20081;-43
2023/08/19 02:39:50;;;;;;;;;;;20.80;99.90;;;;;;5133757;28;20408;-44
2023/08/19 02:42:16;;;;;;;;;;;20.80;99.90;;;;;;5133649;28;19915;-42
2023/08/19 02:44:43;;;;;;;;;;;20.80;99.90;;;;;;5133343;28;19919;-45
2023/08/19 02:47:08;;;;;;;;;;;20.80;99.90;;;;;;5133760;28;19912;-44
2023/08/19 02:49:34;;;;;;;;;;;20.80;99.90;;;;;;5133567;28;19915;-42
2023/08/19 02:51:59;;;;;;;;;;;20.80;99.90;;;;;;5133572;28;20418;-42
2023/08/19 02:54:25;;;;;;;;;;;20.80;99.90;;;;;;5133771;28;19951;-42
2023/08/19 02:56:50;;;;;;;;;;;20.80;99.90;;;;;;5133616;28;19915;-43
2023/08/19 02:59:16;;;;;;;;;;;20.80;99.90;;;;;;5133634;28;19954;-43
2023/08/19 03:01:41;;;;;;;;;;;20.80;99.90;;;;;;5133364;28;19933;-43
2023/08/19 03:04:07;;;;;;;;;;;20.80;99.90;;;;;;5133363;28;19990;-43
2023/08/19 03:06:33;;;;;;;;;;;20.80;99.90;;;;;;5152560;27;19914;-44
2023/08/19 03:08:58;;;;;;;;;;;20.70;99.90;;;;;;5154208;27;19912;-42
2023/08/19 03:11:24;;;;;;;;;;;20.70;99.90;;;;;;5154064;27;19907;-43
2023/08/19 03:13:49;;;;;;;;;;;20.70;99.90;;;;;;5151418;27;19982;-42
2023/08/19 03:16:15;;;;;;;;;;;20.70;99.90;;;;;;5134279;27;19915;-42
2023/08/19 03:18:41;;;;;;;;;;;20.70;99.90;;;;;;5150517;27;19911;-42
2023/08/19 03:21:06;;;;;;;;;;;20.80;99.90;;;;;;5134488;27;19912;-44
2023/08/19 03:23:32;;;;;;;;;;;20.70;99.90;;;;;;5147065;27;19912;-44
2023/08/19 03:25:58;;;;;;;;;;;20.70;99.90;;;;;;5138871;27;19943;-46
2023/08/19 03:28:24;;;;;;;;;;;20.70;99.90;;;;;;5153560;27;19914;-44
2023/08/19 03:30:50;;;;;;;;;;;20.70;99.90;;;;;;5133982;27;19998;-43
2023/08/19 03:33:15;;;;;;;;;;;20.60;99.90;;;;;;5136923;27;19953;-43
2023/08/19 03:35:41;;;;;;;;;;;20.60;99.90;;;;;;5136903;27;20024;-42
2023/08/19 03:38:06;;;;;;;;;;;20.60;99.90;;;;;;5136717;27;20014;-44
2023/08/19 03:40:32;;;;;;;;;;;20.60;99.90;;;;;;5136789;27;19938;-44
2023/08/19 03:42:57;;;;;;;;;;;20.50;99.90;;;;;;5150943;27;19947;-43
2023/08/19 03:45:23;;;;;;;;;;;20.50;99.90;;;;;;5157185;27;19919;-43
2023/08/19 03:47:48;;;;;;;;;;;20.50;99.90;;;;;;5157288;27;20001;-42
2023/08/19 03:50:14;;;;;;;;;;;20.50;99.90;;;;;;5157602;27;19958;-45
2023/08/19 03:52:41;;;;;;;;;;;20.50;99.90;;;;;;5156562;27;20148;-43
2023/08/19 03:55:07;;;;;;;;;;;20.50;99.90;;;;;;5157210;27;19950;-44
2023/08/19 03:57:32;;;;;;;;;;;20.50;99.90;;;;;;5157129;27;19968;-41
2023/08/19 03:59:58;;;;;;;;;;;20.50;99.90;;;;;;5157275;27;20347;-43
2023/08/19 04:02:23;;;;;;;;;;;20.50;99.90;;;;;;5157077;27;19907;-43
2023/08/19 04:04:59;;;;;;;;;;;20.50;99.90;;;;;;5157118;27;20330;-43
2023/08/19 04:07:24;;;;;;;;;;;20.50;99.90;;;;;;5157091;27;20006;-42
2023/08/19 04:09:50;;;;;;;;;;;20.50;99.90;;;;;;5157133;27;20001;-44
2023/08/19 04:12:15;;;;;;;;;;;20.40;99.90;;;;;;5156979;27;20047;-42
2023/08/19 04:14:42;;;;;;;;;;;20.50;99.90;;;;;;5156977;27;19954;-43
2023/08/19 04:17:07;;;;;;;;;;;20.50;99.90;;;;;;5156211;27;20017;-43
2023/08/19 04:19:33;;;;;;;;;;;20.40;99.90;;;;;;5136097;27;19973;-43
2023/08/19 04:21:58;;;;;;;;;;;20.50;99.90;;;;;;5136210;27;19908;-42
2023/08/19 04:24:24;;;;;;;;;;;20.40;99.90;;;;;;5135994;27;20358;-42
2023/08/19 04:26:49;;;;;;;;;;;20.40;99.90;;;;;;5135884;27;19908;-44
2023/08/19 04:29:15;;;;;;;;;;;20.50;99.90;;;;;;5135984;27;19998;-42
2023/08/19 04:31:40;;;;;;;;;;;20.50;99.90;;;;;;5135664;27;19907;-43
2023/08/19 04:34:06;;;;;;;;;;;20.50;99.90;;;;;;5135867;27;19939;-46
2023/08/19 04:36:31;;;;;;;;;;;20.60;99.90;;;;;;5135689;27;20361;-42
2023/08/19 04:38:57;;;;;;;;;;;20.50;99.90;;;;;;5135818;27;19907;-43
2023/08/19 04:41:22;;;;;;;;;;;20.60;99.90;;;;;;5135708;27;20301;-43
2023/08/19 04:43:48;;;;;;;;;;;20.50;99.90;;;;;;5134133;27;20017;-42
2023/08/19 04:46:13;;;;;;;;;;;20.60;99.90;;;;;;5135557;27;19998;-42
2023/08/19 04:48:39;;;;;;;;;;;20.60;99.90;;;;;;5135413;27;20305;-43
2023/08/19 04:51:04;;;;;;;;;;;20.50;99.90;;;;;;5135501;27;19907;-43
2023/08/19 04:53:30;;;;;;;;;;;20.50;99.90;;;;;;5135392;27;19908;-43
2023/08/19 04:55:59;;;;;;;;;;;20.60;99.90;;;;;;5135471;27;20356;-42
2023/08/19 04:58:25;;;;;;;;;;;20.60;99.90;;;;;;5135162;27;19916;-43
2023/08/19 05:00:50;;;;;;;;;;;20.70;99.90;;;;;;5135235;27;19914;-43
2023/08/19 05:03:16;;;;;;;;;;;20.60;99.90;;;;;;5135254;27;19964;-43
2023/08/19 05:05:41;;;;;;;;;;;20.70;99.90;;;;;;5135093;27;19994;-43
2023/08/19 05:08:07;;;;;;;;;;;20.70;99.90;;;;;;5135168;27;20206;-43
2023/08/19 05:10:32;;;;;;;;;;;20.80;99.90;;;;;;5135033;27;19994;-43
2023/08/19 05:12:58;;;;;;;;;;;20.80;99.90;;;;;;5128190;27;20426;-44
2023/08/19 05:15:23;;;;;;;;;;;20.90;99.90;;;;;;5119901;27;19918;-43
2023/08/19 05:17:49;;;;;;;;;;;20.90;99.90;;;;;;5124917;27;19922;-43
2023/08/19 05:20:14;;;;;;;;;;;21.00;99.90;;;;;;5155519;27;19914;-43
2023/08/19 05:22:40;;;;;;;;;;;21.00;99.90;;;;;;5155393;27;20027;-42
2023/08/19 05:25:05;;;;;;;;;;;21.10;99.90;;;;;;5155512;27;19937;-42
2023/08/19 05:27:31;;;;;;;;;;;21.10;99.90;;;;;;5152358;27;19931;-44
2023/08/19 05:29:56;;;;;;;;;;;21.20;99.90;;;;;;5143346;27;19911;-43
2023/08/19 05:32:22;;;;;;;;;;;21.20;99.90;;;;;;5149383;27;19926;-42
2023/08/19 05:34:47;;;;;;;;;;;21.20;99.90;;;;;;5146256;27;19965;-42
2023/08/19 05:37:13;;;;;;;;;;;21.20;99.90;;;;;;5134484;27;19915;-43
2023/08/19 05:39:38;;;;;;;;;;;21.20;99.90;;;;;;5141679;27;19911;-42
2023/08/19 05:42:04;;;;;;;;;;;21.20;99.90;;;;;;5153478;27;19954;-43
2023/08/19 05:44:29;;;;;;;;;;;21.30;99.90;;;;;;5138556;27;19989;-44
2023/08/19 05:46:55;;;;;;;;;;;21.30;99.90;;;;;;5140084;27;19917;-43
2023/08/19 05:49:20;;;;;;;;;;;21.30;99.90;;;;;;5140578;27;19977;-42
2023/08/19 05:51:46;;;;;;;;;;;21.30;99.90;;;;;;5133547;27;20264;-42
2023/08/19 05:54:11;;;;;;;;;;;21.30;99.90;;;;;;5133323;27;20419;-42
2023/08/19 05:56:37;;;;;;;;;;;21.40;99.90;;;;;;5134149;27;19927;-43
2023/08/19 05:59:02;;;;;;;;;;;21.50;99.90;;;;;;5134166;27;19907;-43
2023/08/19 06:01:28;;;;;;;;;;;21.50;99.90;;;;;;5133091;27;20457;-44
2023/08/19 06:03:53;;;;;;;;;;;21.50;99.90;;;;;;5133018;27;20378;-42
2023/08/19 06:06:19;;;;;;;;;;;21.60;99.90;;;;;;5132008;27;19908;-44
2023/08/19 06:08:44;;;;;;;;;;;21.70;99.90;;;;;;5134003;27;19950;-42
2023/08/19 06:11:10;;;;;;;;;;;21.70;99.90;;;;;;5134049;27;19908;-42
2023/08/19 06:13:36;;;;;;;;;;;21.70;99.90;;;;;;5133964;27;19914;-43
2023/08/19 06:16:03;;;;;;;;;;;21.70;99.90;;;;;;5132881;27;19911;-42
2023/08/19 06:18:29;;;;;;;;;;;21.70;99.90;;;;;;5121486;27;19923;-43
2023/08/19 06:20:55;;;;;;;;;;;21.80;99.90;;;;;;5125125;27;19912;-44
2023/08/19 06:23:21;;;;;;;;;;;21.80;99.90;;;;;;5129541;27;20388;-43
2023/08/19 06:25:49;;;;;;;;;;;21.80;99.90;;;;;;5124269;27;19927;-42
2023/08/19 06:28:16;;;;;;;;;;;21.90;99.90;;;;;;5114239;27;19999;-42
2023/08/19 06:30:41;;;;;;;;;;;21.90;99.90;;;;;;5123011;27;19937;-42
2023/08/19 06:33:07;;;;;;;;;;;22.00;99.90;;;;;;5131397;28;19931;-42
2023/08/19 06:35:33;;;;;;;;;;;22.00;99.90;;;;;;5113027;28;20362;-43
2023/08/19 06:38:02;;;;;;;;;;;22.00;99.90;;;;;;5124683;28;20293;-43
2023/08/19 06:40:30;;;;;;;;;;;22.00;99.90;;;;;;5124941;28;19912;-43
2023/08/19 06:42:57;;;;;;;;;;;22.00;99.90;;;;;;5122046;28;19934;-42
2023/08/19 06:45:24;;;;;;;;;;;22.00;99.90;;;;;;5129755;28;19919;-44
2023/08/19 06:47:51;;;;;;;;;;;22.00;99.90;;;;;;5124695;28;19928;-42
2023/08/19 06:50:17;;;;;;;;;;;22.00;99.90;;;;;;5116803;28;20425;-43
2023/08/19 06:52:42;;;;;;;;;;;22.00;99.90;;;;;;5112669;28;19915;-45
2023/08/19 06:55:08;;;;;;;;;;;22.00;99.90;;;;;;5123780;28;19911;-42
2023/08/19 06:57:35;;;;;;;;;;;22.00;99.90;;;;;;5129673;28;20354;-41
2023/08/19 07:00:09;;;;;;;;;;;22.10;99.90;;;;;;5126180;28;20280;-42
2023/08/19 07:02:38;;;;;;;;;;;22.10;99.90;;;;;;5123173;28;20002;-43
2023/08/19 07:05:15;;;;;;;;;;;22.20;99.90;;;;;;5113008;28;19907;-42
2023/08/19 07:07:46;;;;;;;;;;;22.20;99.90;;;;;;5117024;27;19934;-45
2023/08/19 07:10:11;;;;;;;;;;;22.20;99.90;;;;;;5135920;27;20014;-43
2023/08/19 07:12:37;;;;;;;;;;;22.30;99.90;;;;;;5130990;27;19984;-43
2023/08/19 07:15:07;;;;;;;;;;;22.30;99.90;;;;;;5137430;27;19907;-43
2023/08/19 07:17:33;;;;;;;;;;;22.40;99.90;;;;;;5132915;27;20392;-44
2023/08/19 07:19:59;;;;;;;;;;;22.40;99.90;;;;;;5116624;28;19916;-44
2023/08/19 07:22:25;;;;;;;;;;;22.40;99.90;;;;;;5116693;28;19908;-42
2023/08/19 07:24:51;;;;;;;;;;;22.40;99.90;;;;;;5116560;28;19908;-43
2023/08/19 07:27:20;;;;;;;;;;;22.40;99.90;;;;;;5117249;27;19908;-42
2023/08/19 07:29:50;;;;;;;;;;;22.40;99.90;;;;;;5137128;27;19911;-43
2023/08/19 07:32:16;;;;;;;;;;;22.40;99.90;;;;;;5137069;27;19907;-43
2023/08/19 07:34:42;;;;;;;;;;;22.40;99.90;;;;;;5136520;27;19914;-41
2023/08/19 07:37:07;;;;;;;;;;;22.50;99.90;;;;;;5123463;27;19916;-42
2023/08/19 07:39:33;;;;;;;;;;;22.50;99.90;;;;;;5116180;28;20017;-43
2023/08/19 07:41:58;;;;;;;;;;;22.60;99.90;;;;;;5116371;28;19964;-44
2023/08/19 07:44:24;;;;;;;;;;;22.60;99.90;;;;;;5115863;28;19927;-48
2023/08/19 07:46:49;;;;;;;;;;;22.60;99.90;;;;;;5125109;27;20362;-43
2023/08/19 07:49:14;;;;;;;;;;;22.70;99.90;;;;;;5136676;27;19907;-43
2023/08/19 07:51:40;;;;;;;;;;;22.80;99.90;;;;;;5136392;27;20392;-44
2023/08/19 07:54:05;;;;;;;;;;;22.80;99.90;;;;;;5136436;27;19918;-42
2023/08/19 07:56:31;;;;;;;;;;;22.90;99.90;;;;;;5134380;27;19923;-42
2023/08/19 07:58:56;;;;;;;;;;;22.90;99.90;;;;;;5135563;27;20397;-42
2023/08/19 08:01:22;;;;;;;;;;;23.00;99.90;;;;;;5136351;27;19947;-44
2023/08/19 08:03:48;;;;;;;;;;;23.10;99.90;;;;;;5136243;27;20278;-43
2023/08/19 08:06:14;;;;;;;;;;;23.10;99.90;;;;;;5119311;27;20363;-42
2023/08/19 08:08:39;;;;;;;;;;;23.20;99.90;;;;;;5115639;28;19914;-43
2023/08/19 08:11:05;;;;;;;;;;;23.30;99.90;;;;;;5115799;28;20028;-43
2023/08/19 08:13:31;;;;;;;;;;;23.30;99.90;;;;;;5115534;28;19908;-42
2023/08/19 08:15:58;;;;;;;;;;;23.40;99.90;;;;;;5128702;27;19951;-43
2023/08/19 08:18:24;;;;;;;;;;;23.50;99.90;;;;;;5135828;27;19922;-47
2023/08/19 08:20:49;;;;;;;;;;;23.50;99.90;;;;;;5136088;27;19907;-44
2023/08/19 08:23:15;;;;;;;;;;;23.60;99.90;;;;;;5135922;27;19911;-43
2023/08/19 08:25:40;;;;;;;;;;;23.70;99.90;;;;;;5135522;27;19918;-44
2023/08/19 08:28:06;;;;;;;;;;;23.80;99.90;;;;;;5135826;27;20002;-42
2023/08/19 08:30:32;;;;;;;;;;;23.90;99.90;;;;;;5135757;27;19907;-42
2023/08/19 08:32:58;;;;;;;;;;;23.90;99.90;;;;;;5135591;27;19908;-44
2023/08/19 08:35:23;;;;;;;;;;;24.10;99.90;;;;;;5129934;27;19911;-42
2023/08/19 08:37:49;;;;;;;;;;;24.10;99.90;;;;;;5135519;27;19923;-44
2023/08/19 08:40:14;;;;;;;;;;;24.20;99.90;;;;;;5130923;27;19962;-44
2023/08/19 08:42:40;;;;;;;;;;;24.30;99.90;;;;;;5121831;27;19911;-42
2023/08/19 08:45:06;;;;;;;;;;;24.40;99.90;;;;;;5120405;27;20406;-42
2023/08/19 08:47:32;;;;;;;;;;;24.50;99.90;;;;;;5126024;27;19912;-42
2023/08/19 08:49:58;;;;;;;;;;;24.60;99.90;;;;;;5135263;27;20308;-46
2023/08/19 08:52:24;;;;;;;;;;;24.70;99.90;;;;;;5135350;27;19998;-43
2023/08/19 08:54:53;;;;;;;;;;;24.80;99.90;;;;;;5135391;27;20000;-43
2023/08/19 08:57:19;;;;;;;;;;;24.90;99.90;;;;;;5135303;27;20187;-43
2023/08/19 08:59:44;;;;;;;;;;;25.10;99.90;;;;;;5135296;27;19998;-42
2023/08/19 09:02:11;;;;;;;;;;;25.20;99.90;;;;;;5135144;27;19908;-43
2023/08/19 09:04:38;;;;;;;;;;;25.30;99.90;;;;;;5134956;27;19915;-44
2023/08/19 09:07:08;;;;;;;;;;;25.40;99.90;;;;;;5133833;27;19911;-44
2023/08/19 09:09:35;;;;;;;;;;;25.40;99.90;;;;;;5114537;28;19920;-46
2023/08/19 09:12:03;;;;;;;;;;;25.40;99.90;;;;;;5114636;28;19908;-43
2023/08/19 09:14:29;;;;;;;;;;;25.40;99.90;;;;;;5114287;28;19912;-45
2023/08/19 09:16:54;;;;;;;;;;;25.50;99.90;;;;;;5120893;27;19916;-44
2023/08/19 09:19:20;;;;;;;;;;;25.50;99.90;;;;;;5134769;27;19916;-42
2023/08/19 09:21:45;;;;;;;;;;;25.60;99.90;;;;;;5134910;27;19960;-43
2023/08/19 09:24:15;;;;;;;;;;;25.60;99.90;;;;;;5134957;27;19999;-44
2023/08/19 09:26:40;;;;;;;;;;;25.70;99.90;;;;;;5124531;27;19919;-44
2023/08/19 09:29:06;;;;;;;;;;;25.70;99.90;;;;;;5113703;28;19985;-45
2023/08/19 09:31:32;;;;;;;;;;;25.70;99.90;;;;;;5129998;27;19911;-47
2023/08/19 09:33:58;;;;;;;;;;;25.70;99.90;;;;;;5131665;27;20281;-43
2023/08/19 09:36:24;;;;;;;;;;;25.70;99.90;;;;;;5128419;27;19915;-46
2023/08/19 09:38:53;;;;;;;;;;;25.70;99.90;;;;;;5126042;27;19964;-46
2023/08/19 09:41:19;;;;;;;;;;;25.80;99.90;;;;;;5127081;27;19916;-44
2023/08/19 09:43:46;;;;;;;;;;;25.90;99.90;;;;;;5133267;27;20369;-42
2023/08/19 09:46:13;;;;;;;;;;;25.90;99.90;;;;;;5124263;27;20292;-44
2023/08/19 09:48:39;;;;;;;;;;;26.00;99.90;;;;;;5132864;27;19967;-44
2023/08/19 09:51:08;;;;;;;;;;;26.00;99.90;;;;;;5126411;27;19907;-44
2023/08/19 09:53:36;;;;;;;;;;;26.10;99.90;;;;;;5134850;27;20006;-42
2023/08/19 09:56:02;;;;;;;;;;;26.20;99.90;;;;;;5123613;27;19908;-47
2023/08/19 09:58:27;;;;;;;;;;;26.20;99.90;;;;;;5113062;28;19926;-44
2023/08/19 10:00:53;;;;;;;;;;;26.20;99.90;;;;;;5120183;27;19908;-44
2023/08/19 10:03:19;;;;;;;;;;;26.30;99.90;;;;;;5130543;27;20011;-44
2023/08/19 10:05:48;;;;;;;;;;;26.30;99.90;;;;;;5113264;28;20006;-44
2023/08/19 10:08:18;;;;;;;;;;;26.40;99.90;;;;;;5113455;28;19908;-46
2023/08/19 10:10:44;;;;;;;;;;;26.40;99.90;;;;;;5113410;28;19908;-44
2023/08/19 10:13:11;;;;;;;;;;;26.40;99.90;;;;;;5113219;27;20410;-45
2023/08/19 10:15:38;;;;;;;;;;;26.50;99.90;;;;;;5113790;27;20018;-45
2023/08/19 10:18:07;;;;;;;;;;;26.60;99.90;;;;;;5133353;27;19916;-43
2023/08/19 10:20:32;;;;;;;;;;;26.60;99.90;;;;;;5134117;27;19917;-45
2023/08/19 10:23:00;;;;;;;;;;;26.60;99.90;;;;;;5133820;27;20344;-45
2023/08/19 10:25:27;;;;;;;;;;;26.60;99.90;;;;;;5133758;27;19907;-43
2023/08/19 10:27:53;;;;;;;;;;;26.60;99.90;;;;;;5133768;27;19907;-43
2023/08/19 10:30:24;;;;;;;;;;;26.50;99.90;;;;;;5133299;27;20358;-43
2023/08/19 10:32:50;;;;;;;;;;;26.50;99.90;;;;;;5133767;27;19911;-45
2023/08/19 10:35:16;;;;;;;;;;;26.40;99.90;;;;;;5133671;28;20345;-42
2023/08/19 10:37:42;;;;;;;;;;;26.40;99.90;;;;;;5133535;28;19915;-43
2023/08/19 10:40:12;;;;;;;;;;;26.30;99.90;;;;;;5134803;27;19907;-47
2023/08/19 10:42:38;;;;;;;;;;;26.30;99.90;;;;;;5137584;27;19911;-44
2023/08/19 10:45:12;;;;;;;;;;;26.20;99.90;;;;;;5137724;27;19924;-44
2023/08/19 10:47:39;;;;;;;;;;;26.10;99.90;;;;;;5137496;27;19922;-42
2023/08/19 10:50:06;;;;;;;;;;;26.10;99.90;;;;;;5137274;27;20346;-42
2023/08/19 10:52:32;;;;;;;;;;;26.00;99.90;;;;;;5123196;27;20268;-43
2023/08/19 10:54:58;;;;;;;;;;;26.00;99.90;;;;;;5132084;27;19918;-43
2023/08/19 10:57:24;;;;;;;;;;;25.90;99.90;;;;;;5135713;27;19919;-43
2023/08/19 10:59:52;;;;;;;;;;;25.80;99.90;;;;;;5137705;27;19907;-42
2023/08/19 11:02:18;;;;;;;;;;;25.80;99.90;;;;;;5122579;27;19914;-47
2023/08/19 11:04:46;;;;;;;;;;;25.80;99.90;;;;;;5116776;28;19947;-42
2023/08/19 11:07:11;;;;;;;;;;;25.80;99.90;;;;;;5122480;27;19911;-42
2023/08/19 11:09:39;;;;;;;;;;;25.70;99.90;;;;;;5129542;27;20259;-43
2023/08/19 11:12:05;;;;;;;;;;;25.80;99.90;;;;;;5119100;27;19995;-44
2023/08/19 11:14:30;;;;;;;;;;;25.80;99.90;;;;;;5136302;27;20441;-44
2023/08/19 11:16:56;;;;;;;;;;;25.80;99.90;;;;;;5136874;27;20006;-45
2023/08/19 11:19:22;;;;;;;;;;;25.80;99.90;;;;;;5136291;27;20267;-42
2023/08/19 11:21:48;;;;;;;;;;;25.80;99.90;;;;;;5137367;27;19994;-43
2023/08/19 11:24:14;;;;;;;;;;;25.90;99.90;;;;;;5137194;27;19981;-43
2023/08/19 11:26:40;;;;;;;;;;;26.00;99.90;;;;;;5136700;27;19981;-43
2023/08/19 11:29:06;;;;;;;;;;;26.10;99.90;;;;;;5126478;27;19935;-46
2023/08/19 11:31:33;;;;;;;;;;;26.20;99.90;;;;;;5133000;27;19943;-46
2023/08/19 11:33:58;;;;;;;;;;;26.30;99.90;;;;;;5128349;27;19912;-42
2023/08/19 11:36:26;;;;;;;;;;;26.50;99.90;;;;;;5116348;28;19915;-46
2023/08/19 11:38:55;;;;;;;;;;;26.70;99.90;;;;;;5120428;27;19920;-48
2023/08/19 11:41:21;;;;;;;;;;;26.80;99.90;;;;;;5116180;28;19915;-43
2023/08/19 11:43:46;;;;;;;;;;;26.80;99.90;;;;;;5132995;27;20278;-42
2023/08/19 11:46:12;;;;;;;;;;;26.80;99.90;;;;;;5131682;27;19915;-42
2023/08/19 11:48:38;;;;;;;;;;;26.70;99.90;;;;;;5124621;27;19919;-44
2023/08/19 11:51:08;;;;;;;;;;;26.70;99.90;;;;;;5129973;27;19943;-44
2023/08/19 11:53:33;;;;;;;;;;;26.70;99.90;;;;;;5122296;27;19919;-44
2023/08/19 11:55:59;;;;;;;;;;;26.70;99.90;;;;;;5118830;27;19942;-44
2023/08/19 11:58:45;;;;;;;;;;;26.80;99.90;;;;;;5133897;27;19920;-44
2023/08/19 12:01:10;;;;;;;;;;;26.90;99.90;;;;;;5120026;27;19912;-42
2023/08/19 12:03:36;;;;;;;;;;;27.00;99.90;;;;;;5115779;28;20373;-42
2023/08/19 12:06:02;;;;;;;;;;;27.20;99.90;;;;;;5115755;28;19916;-44
2023/08/19 12:08:31;;;;;;;;;;;27.30;99.90;;;;;;5115752;28;19907;-44
2023/08/19 12:10:57;;;;;;;;;;;27.60;99.90;;;;;;5127425;27;19915;-44
2023/08/19 12:13:23;;;;;;;;;;;27.70;99.90;;;;;;5135005;27;19952;-42
2023/08/19 12:15:49;;;;;;;;;;;27.80;99.90;;;;;;5115790;27;19911;-44
2023/08/19 12:18:15;;;;;;;;;;;28.00;99.90;;;;;;5135526;27;19919;-43
2023/08/19 12:20:40;;;;;;;;;;;28.10;99.90;;;;;;5135157;27;19915;-44
2023/08/19 12:23:06;;;;;;;;;;;28.10;99.90;;;;;;5135633;27;19955;-47
2023/08/19 12:25:31;;;;;;;;;;;28.00;99.90;;;;;;5135479;27;19907;-42
2023/08/19 12:27:58;;;;;;;;;;;28.00;99.90;;;;;;5135302;27;19919;-44
2023/08/19 12:30:24;;;;;;;;;;;27.90;99.90;;;;;;5134972;27;20036;-43
2023/08/19 12:32:49;;;;;;;;;;;27.80;99.90;;;;;;5135616;27;19980;-43
2023/08/19 12:35:15;;;;;;;;;;;27.70;99.90;;;;;;5134644;27;19918;-44
2023/08/19 12:37:40;;;;;;;;;;;27.60;99.90;;;;;;5135144;27;19920;-44
2023/08/19 12:40:09;;;;;;;;;;;27.50;99.90;;;;;;5134790;27;19916;-47
2023/08/19 12:42:35;;;;;;;;;;;27.40;99.90;;;;;;5134427;27;20441;-42
2023/08/19 12:45:01;;;;;;;;;;;27.30;99.90;;;;;;5131848;27;20010;-44
2023/08/19 12:47:26;;;;;;;;;;;27.20;99.90;;;;;;5134327;27;19954;-43
2023/08/19 12:49:52;;;;;;;;;;;27.10;99.90;;;;;;5134317;27;19914;-43
2023/08/19 12:52:18;;;;;;;;;;;27.00;99.90;;;;;;5135313;27;19947;-44
2023/08/19 12:54:43;;;;;;;;;;;26.80;99.90;;;;;;5134192;27;19915;-44
2023/08/19 12:57:09;;;;;;;;;;;26.70;99.90;;;;;;5123279;27;19922;-43
2023/08/19 12:59:34;;;;;;;;;;;26.60;99.90;;;;;;5132941;27;19916;-42
2023/08/19 13:02:01;;;;;;;;;;;26.50;99.90;;;;;;5120928;27;20018;-44
2023/08/19 13:04:26;;;;;;;;;;;26.40;99.90;;;;;;5133846;27;19961;-43
2023/08/19 13:06:52;;;;;;;;;;;26.30;99.90;;;;;;5133929;27;19911;-44
2023/08/19 13:09:20;;;;;;;;;;;26.20;99.90;;;;;;5126311;27;19919;-43
2023/08/19 13:11:46;;;;;;;;;;;26.00;99.90;;;;;;5117346;27;19916;-42
2023/08/19 13:14:11;;;;;;;;;;;25.80;99.90;;;;;;5127392;27;19919;-42
2023/08/19 13:16:37;;;;;;;;;;;25.80;99.90;;;;;;5117684;27;19915;-42
2023/08/19 13:19:03;;;;;;;;;;;25.60;99.90;;;;;;5122237;27;19915;-46
2023/08/19 13:21:28;;;;;;;;;;;25.40;99.90;;;;;;5125213;27;19911;-44
2023/08/19 13:23:54;;;;;;;;;;;25.40;99.90;;;;;;5132590;27;20036;-43
2023/08/19 13:26:20;;;;;;;;;;;25.30;99.90;;;;;;5134176;27;20000;-43
2023/08/19 13:28:45;;;;;;;;;;;25.20;99.90;;;;;;5133649;27;19907;-43
2023/08/19 13:31:11;;;;;;;;;;;25.00;99.90;;;;;;5121571;27;19951;-42
2023/08/19 13:33:36;;;;;;;;;;;24.90;99.90;;;;;;5112274;28;20575;-45
2023/08/19 13:36:03;;;;;;;;;;;24.80;99.90;;;;;;5113811;28;19953;-43
2023/08/19 13:38:28;;;;;;;;;;;24.70;99.90;;;;;;5113684;28;19923;-47
2023/08/19 13:40:54;;;;;;;;;;;24.70;99.90;;;;;;5123337;27;19911;-43
2023/08/19 13:43:19;;;;;;;;;;;24.70;99.90;;;;;;5134162;27;19979;-42
2023/08/19 13:45:46;;;;;;;;;;;24.70;99.90;;;;;;5133803;27;19966;-44
2023/08/19 13:48:11;;;;;;;;;;;24.80;99.90;;;;;;5133938;27;19908;-43
2023/08/19 13:50:37;;;;;;;;;;;24.80;99.90;;;;;;5132124;27;19925;-43
2023/08/19 13:53:02;;;;;;;;;;;24.80;99.90;;;;;;5134120;27;19951;-43
2023/08/19 13:55:28;;;;;;;;;;;24.80;99.90;;;;;;5133872;27;19914;-43
2023/08/19 13:57:54;;;;;;;;;;;24.80;99.90;;;;;;5133885;27;19915;-43
2023/08/19 14:00:19;;;;;;;;;;;24.80;99.90;;;;;;5114891;27;19926;-43
2023/08/19 14:02:46;;;;;;;;;;;24.80;99.90;;;;;;5113258;28;19960;-43
2023/08/19 14:05:15;;;;;;;;;;;24.80;99.90;;;;;;5113211;28;19930;-43
2023/08/19 14:07:44;;;;;;;;;;;24.80;99.90;;;;;;5122956;27;19919;-42
2023/08/19 14:10:13;;;;;;;;;;;24.70;99.90;;;;;;5133901;27;19950;-44